sensor_id;sensor_type;location;lat;lon;timestamp;pressure;altitude;pressure_sealevel;temperature;humidity
58967;BME280;44744;51.894;5.080;2024-01-11T00:01:23;103419.15;;;-4.34;63.35
58967;BME280;44744;51.894;5.080;2024-01-11T00:06:24;103426.52;;;-4.32;62.98
58967;BME280;44744;51.894;5.080;2024-01-11T00:11:24;103422.66;;;-4.33;62.61
58967;BME280;44744;51.894;5.080;2024-01-11T00:16:24;103419.64;;;-4.35;62.42
58967;BME280;44744;51.894;5.080;2024-01-11T00:21:26;103423.80;;;-4.38;62.31
58967;BME280;44744;51.894;5.080;2024-01-11T00:26:27;103423.97;;;-4.45;62.12
58967;BME280;44744;51.894;5.080;2024-01-11T00:31:27;103419.78;;;-4.54;62.17
58967;BME280;44744;51.894;5.080;2024-01-11T00:36:28;103417.91;;;-4.60;62.21
58967;BME280;44744;51.894;5.080;2024-01-11T00:41:30;103421.67;;;-4.68;62.44
58967;BME280;44744;51.894;5.080;2024-01-11T00:51:37;103425.20;;;-4.73;62.49
58967;BME280;44744;51.894;5.080;2024-01-11T00:56:37;103424.17;;;-4.77;62.58
58967;BME280;44744;51.894;5.080;2024-01-11T01:01:37;103426.05;;;-4.81;62.59
58967;BME280;44744;51.894;5.080;2024-01-11T01:06:38;103432.16;;;-4.86;62.61
58967;BME280;44744;51.894;5.080;2024-01-11T01:11:39;103431.81;;;-4.93;62.68
58967;BME280;44744;51.894;5.080;2024-01-11T01:16:39;103441.95;;;-4.98;62.71
58967;BME280;44744;51.894;5.080;2024-01-11T01:21:40;103442.75;;;-5.02;62.90
58967;BME280;44744;51.894;5.080;2024-01-11T01:26:40;103443.71;;;-5.07;62.88
58967;BME280;44744;51.894;5.080;2024-01-11T01:31:42;103451.64;;;-5.11;63.03
58967;BME280;44744;51.894;5.080;2024-01-11T01:36:42;103452.55;;;-5.13;63.05
58967;BME280;44744;51.894;5.080;2024-01-11T01:41:43;103453.16;;;-5.15;63.26
58967;BME280;44744;51.894;5.080;2024-01-11T01:46:43;103453.41;;;-5.17;63.35
58967;BME280;44744;51.894;5.080;2024-01-11T01:51:44;103460.39;;;-5.18;63.42
58967;BME280;44744;51.894;5.080;2024-01-11T01:56:44;103460.34;;;-5.20;63.40
58967;BME280;44744;51.894;5.080;2024-01-11T02:01:45;103469.61;;;-5.10;63.68
58967;BME280;44744;51.894;5.080;2024-01-11T02:06:46;103468.31;;;-5.02;64.41
58967;BME280;44744;51.894;5.080;2024-01-11T02:11:47;103470.10;;;-4.98;64.70
58967;BME280;44744;51.894;5.080;2024-01-11T02:16:48;103464.09;;;-5.00;64.44
58967;BME280;44744;51.894;5.080;2024-01-11T02:21:50;103466.70;;;-5.03;64.34
58967;BME280;44744;51.894;5.080;2024-01-11T02:27:04;103471.35;;;-5.10;64.17
58967;BME280;44744;51.894;5.080;2024-01-11T02:32:11;103470.00;;;-5.20;64.11
58967;BME280;44744;51.894;5.080;2024-01-11T02:37:12;103474.74;;;-5.28;64.09
58967;BME280;44744;51.894;5.080;2024-01-11T02:42:13;103474.27;;;-5.37;64.24
58967;BME280;44744;51.894;5.080;2024-01-11T02:47:14;103476.48;;;-5.41;64.35
58967;BME280;44744;51.894;5.080;2024-01-11T02:52:14;103474.41;;;-5.41;64.51
58967;BME280;44744;51.894;5.080;2024-01-11T02:57:15;103478.85;;;-5.42;64.61
58967;BME280;44744;51.894;5.080;2024-01-11T03:02:15;103482.51;;;-5.47;64.33
58967;BME280;44744;51.894;5.080;2024-01-11T03:07:16;103481.52;;;-5.56;64.50
58967;BME280;44744;51.894;5.080;2024-01-11T03:12:16;103481.77;;;-5.61;64.57
58967;BME280;44744;51.894;5.080;2024-01-11T03:17:16;103476.58;;;-5.65;64.82
58967;BME280;44744;51.894;5.080;2024-01-11T03:22:17;103467.38;;;-5.66;64.89
58967;BME280;44744;51.894;5.080;2024-01-11T03:27:17;103465.11;;;-5.70;64.96
58967;BME280;44744;51.894;5.080;2024-01-11T03:32:18;103465.70;;;-5.69;65.19
58967;BME280;44744;51.894;5.080;2024-01-11T03:37:19;103470.96;;;-5.67;65.18
58967;BME280;44744;51.894;5.080;2024-01-11T03:42:20;103472.95;;;-5.58;65.23
58967;BME280;44744;51.894;5.080;2024-01-11T03:47:21;103477.34;;;-5.51;65.77
58967;BME280;44744;51.894;5.080;2024-01-11T03:52:21;103491.08;;;-5.55;65.94
58967;BME280;44744;51.894;5.080;2024-01-11T03:57:22;103494.45;;;-5.63;65.97
58967;BME280;44744;51.894;5.080;2024-01-11T04:02:22;103496.02;;;-5.72;65.90
58967;BME280;44744;51.894;5.080;2024-01-11T04:07:23;103496.20;;;-5.85;65.87
58967;BME280;44744;51.894;5.080;2024-01-11T04:12:24;103491.91;;;-5.91;66.00
58967;BME280;44744;51.894;5.080;2024-01-11T04:17:25;103492.59;;;-5.94;66.08
58967;BME280;44744;51.894;5.080;2024-01-11T04:22:28;103493.39;;;-5.95;66.16
58967;BME280;44744;51.894;5.080;2024-01-11T04:27:28;103490.70;;;-5.97;66.27
58967;BME280;44744;51.894;5.080;2024-01-11T04:32:29;103508.77;;;-5.98;66.39
58967;BME280;44744;51.894;5.080;2024-01-11T04:37:29;103514.59;;;-5.98;66.38
58967;BME280;44744;51.894;5.080;2024-01-11T04:42:29;103520.50;;;-6.01;66.49
58967;BME280;44744;51.894;5.080;2024-01-11T04:47:30;103524.24;;;-6.05;66.38
58967;BME280;44744;51.894;5.080;2024-01-11T04:52:33;103523.25;;;-6.07;66.49
58967;BME280;44744;51.894;5.080;2024-01-11T04:57:33;103518.77;;;-6.07;66.66
58967;BME280;44744;51.894;5.080;2024-01-11T05:02:34;103530.35;;;-6.00;66.78
58967;BME280;44744;51.894;5.080;2024-01-11T05:07:37;103537.27;;;-5.93;67.56
58967;BME280;44744;51.894;5.080;2024-01-11T05:12:37;103544.27;;;-5.91;68.19
58967;BME280;44744;51.894;5.080;2024-01-11T05:17:41;103538.64;;;-5.93;68.26
58967;BME280;44744;51.894;5.080;2024-01-11T05:22:43;103540.83;;;-5.98;68.21
58967;BME280;44744;51.894;5.080;2024-01-11T05:27:43;103533.90;;;-5.98;68.24
58967;BME280;44744;51.894;5.080;2024-01-11T05:32:44;103524.13;;;-6.01;68.23
58967;BME280;44744;51.894;5.080;2024-01-11T05:37:47;103534.66;;;-6.00;68.36
58967;BME280;44744;51.894;5.080;2024-01-11T05:42:47;103547.48;;;-6.02;68.37
58967;BME280;44744;51.894;5.080;2024-01-11T05:47:48;103540.45;;;-6.04;68.43
58967;BME280;44744;51.894;5.080;2024-01-11T05:52:48;103540.35;;;-6.07;68.49
58967;BME280;44744;51.894;5.080;2024-01-11T05:57:49;103556.63;;;-6.08;68.72
58967;BME280;44744;51.894;5.080;2024-01-11T06:02:50;103551.96;;;-6.11;68.71
58967;BME280;44744;51.894;5.080;2024-01-11T06:07:53;103544.42;;;-6.10;68.72
58967;BME280;44744;51.894;5.080;2024-01-11T06:12:56;103547.61;;;-6.03;68.82
58967;BME280;44744;51.894;5.080;2024-01-11T06:18:09;103558.20;;;-5.92;69.41
58967;BME280;44744;51.894;5.080;2024-01-11T06:23:15;103540.60;;;-5.86;69.63
58967;BME280;44744;51.894;5.080;2024-01-11T06:28:17;103553.42;;;-5.85;69.68
58967;BME280;44744;51.894;5.080;2024-01-11T06:33:17;103568.48;;;-5.90;69.53
58967;BME280;44744;51.894;5.080;2024-01-11T06:38:21;103579.83;;;-5.93;69.80
58967;BME280;44744;51.894;5.080;2024-01-11T06:43:24;103591.06;;;-5.96;69.80
58967;BME280;44744;51.894;5.080;2024-01-11T06:48:34;103590.39;;;-6.05;69.76
58967;BME280;44744;51.894;5.080;2024-01-11T06:53:44;103609.53;;;-6.17;69.83
58967;BME280;44744;51.894;5.080;2024-01-11T06:58:45;103630.69;;;-6.23;70.11
58967;BME280;44744;51.894;5.080;2024-01-11T07:03:46;103625.81;;;-6.33;70.19
58967;BME280;44744;51.894;5.080;2024-01-11T07:08:47;103629.59;;;-6.36;70.45
58967;BME280;44744;51.894;5.080;2024-01-11T07:13:49;103624.16;;;-6.35;70.49
58967;BME280;44744;51.894;5.080;2024-01-11T07:18:50;103632.23;;;-6.26;70.80
58967;BME280;44744;51.894;5.080;2024-01-11T07:23:50;103634.03;;;-6.13;71.46
58967;BME280;44744;51.894;5.080;2024-01-11T07:28:51;103633.77;;;-6.00;72.01
58967;BME280;44744;51.894;5.080;2024-01-11T07:33:54;103632.44;;;-5.92;72.12
58967;BME280;44744;51.894;5.080;2024-01-11T07:38:56;103621.42;;;-5.89;71.88
58967;BME280;44744;51.894;5.080;2024-01-11T07:43:56;103620.86;;;-5.93;71.72
58967;BME280;44744;51.894;5.080;2024-01-11T07:48:59;103612.67;;;-5.98;71.60
58967;BME280;44744;51.894;5.080;2024-01-11T07:54:00;103602.95;;;-6.03;71.58
58967;BME280;44744;51.894;5.080;2024-01-11T07:59:00;103592.95;;;-6.05;71.51
58967;BME280;44744;51.894;5.080;2024-01-11T08:04:01;103592.92;;;-6.09;71.60
58967;BME280;44744;51.894;5.080;2024-01-11T08:09:03;103594.57;;;-6.10;71.76
58967;BME280;44744;51.894;5.080;2024-01-11T08:14:04;103610.36;;;-6.11;71.68
58967;BME280;44744;51.894;5.080;2024-01-11T08:19:05;103618.19;;;-6.19;71.63
58967;BME280;44744;51.894;5.080;2024-01-11T08:24:07;103623.16;;;-6.22;71.96
58967;BME280;44744;51.894;5.080;2024-01-11T08:29:07;103613.77;;;-6.21;71.83
58967;BME280;44744;51.894;5.080;2024-01-11T08:34:09;103605.88;;;-6.11;72.02
58967;BME280;44744;51.894;5.080;2024-01-11T08:39:10;103608.86;;;-5.95;72.55
58967;BME280;44744;51.894;5.080;2024-01-11T08:44:13;103623.61;;;-5.84;72.83
58967;BME280;44744;51.894;5.080;2024-01-11T08:49:13;103629.44;;;-5.79;73.02
58967;BME280;44744;51.894;5.080;2024-01-11T08:54:14;103618.85;;;-5.79;72.87
58967;BME280;44744;51.894;5.080;2024-01-11T08:59:16;103628.49;;;-5.80;73.00
58967;BME280;44744;51.894;5.080;2024-01-11T09:04:17;103634.95;;;-5.79;73.05
58967;BME280;44744;51.894;5.080;2024-01-11T09:09:17;103650.64;;;-5.78;73.05
58967;BME280;44744;51.894;5.080;2024-01-11T09:14:18;103663.96;;;-5.78;73.10
58967;BME280;44744;51.894;5.080;2024-01-11T09:19:18;103668.66;;;-5.74;73.50
58967;BME280;44744;51.894;5.080;2024-01-11T09:24:19;103673.82;;;-5.68;73.60
58967;BME280;44744;51.894;5.080;2024-01-11T09:29:19;103681.78;;;-5.55;74.14
58967;BME280;44744;51.894;5.080;2024-01-11T09:34:20;103684.52;;;-5.41;74.72
58967;BME280;44744;51.894;5.080;2024-01-11T09:39:21;103693.86;;;-5.25;75.17
58967;BME280;44744;51.894;5.080;2024-01-11T09:44:25;103705.33;;;-5.11;75.24
58967;BME280;44744;51.894;5.080;2024-01-11T09:49:26;103707.09;;;-5.01;75.27
58967;BME280;44744;51.894;5.080;2024-01-11T09:54:31;103703.42;;;-4.92;75.25
58967;BME280;44744;51.894;5.080;2024-01-11T09:59:32;103708.20;;;-4.87;75.11
58967;BME280;44744;51.894;5.080;2024-01-11T10:04:34;103710.61;;;-4.81;75.10
58967;BME280;44744;51.894;5.080;2024-01-11T10:09:35;103723.04;;;-4.74;74.97
58967;BME280;44744;51.894;5.080;2024-01-11T10:14:36;103719.12;;;-4.67;74.95
58967;BME280;44744;51.894;5.080;2024-01-11T10:24:48;103721.38;;;-4.37;75.56
58967;BME280;44744;51.894;5.080;2024-01-11T10:29:52;103717.48;;;-4.23;76.52
58967;BME280;44744;51.894;5.080;2024-01-11T10:34:53;103718.73;;;-4.16;76.34
58967;BME280;44744;51.894;5.080;2024-01-11T10:39:55;103713.11;;;-4.10;76.24
58967;BME280;44744;51.894;5.080;2024-01-11T10:44:59;103713.30;;;-4.03;76.59
58967;BME280;44744;51.894;5.080;2024-01-11T10:50:02;103720.16;;;-3.98;77.43
58967;BME280;44744;51.894;5.080;2024-01-11T10:55:05;103727.53;;;-3.88;79.57
58967;BME280;44744;51.894;5.080;2024-01-11T11:00:06;103733.33;;;-3.80;81.06
58967;BME280;44744;51.894;5.080;2024-01-11T11:05:07;103727.45;;;-3.70;82.10
58967;BME280;44744;51.894;5.080;2024-01-11T11:10:12;103729.07;;;-3.58;84.26
58967;BME280;44744;51.894;5.080;2024-01-11T11:15:13;103735.18;;;-3.43;84.47
58967;BME280;44744;51.894;5.080;2024-01-11T11:20:14;103740.73;;;-3.24;84.08
58967;BME280;44744;51.894;5.080;2024-01-11T11:25:25;103742.52;;;-3.13;83.95
58967;BME280;44744;51.894;5.080;2024-01-11T11:30:27;103745.96;;;-3.06;83.87
58967;BME280;44744;51.894;5.080;2024-01-11T11:35:27;103747.87;;;-2.98;84.09
58967;BME280;44744;51.894;5.080;2024-01-11T11:40:39;103755.20;;;-2.82;83.90
58967;BME280;44744;51.894;5.080;2024-01-11T11:45:47;103751.56;;;-2.64;84.75
58967;BME280;44744;51.894;5.080;2024-01-11T11:51:01;103743.30;;;-2.51;85.41
58967;BME280;44744;51.894;5.080;2024-01-11T11:56:03;103734.97;;;-2.44;85.65
58967;BME280;44744;51.894;5.080;2024-01-11T12:01:04;103720.83;;;-2.38;85.45
58967;BME280;44744;51.894;5.080;2024-01-11T12:06:08;103712.59;;;-2.28;84.93
58967;BME280;44744;51.894;5.080;2024-01-11T12:11:23;103705.79;;;-2.13;85.09
58967;BME280;44744;51.894;5.080;2024-01-11T12:16:24;103697.60;;;-1.98;85.38
58967;BME280;44744;51.894;5.080;2024-01-11T12:21:28;103699.70;;;-1.90;85.53
58967;BME280;44744;51.894;5.080;2024-01-11T12:26:28;103697.05;;;-1.87;85.53
58967;BME280;44744;51.894;5.080;2024-01-11T12:31:29;103683.50;;;-1.83;85.37
58967;BME280;44744;51.894;5.080;2024-01-11T12:36:30;103677.67;;;-1.73;85.36
58967;BME280;44744;51.894;5.080;2024-01-11T12:41:32;103668.70;;;-1.59;85.84
58967;BME280;44744;51.894;5.080;2024-01-11T12:46:33;103660.27;;;-1.48;85.89
58967;BME280;44744;51.894;5.080;2024-01-11T12:51:36;103664.19;;;-1.41;85.96
58967;BME280;44744;51.894;5.080;2024-01-11T12:56:40;103653.30;;;-1.36;85.80
58967;BME280;44744;51.894;5.080;2024-01-11T13:01:41;103654.13;;;-1.19;85.67
58967;BME280;44744;51.894;5.080;2024-01-11T13:06:42;103648.14;;;-1.03;85.88
58967;BME280;44744;51.894;5.080;2024-01-11T13:11:42;103646.53;;;-0.90;85.92
58967;BME280;44744;51.894;5.080;2024-01-11T13:16:43;103642.52;;;-0.86;85.70
58967;BME280;44744;51.894;5.080;2024-01-11T13:21:46;103638.51;;;-0.86;85.56
58967;BME280;44744;51.894;5.080;2024-01-11T13:27:05;103633.77;;;-0.83;85.27
58967;BME280;44744;51.894;5.080;2024-01-11T13:32:06;103632.67;;;-0.75;84.95
58967;BME280;44744;51.894;5.080;2024-01-11T13:37:07;103632.41;;;-0.67;85.34
58967;BME280;44744;51.894;5.080;2024-01-11T13:42:07;103629.23;;;-0.59;85.46
58967;BME280;44744;51.894;5.080;2024-01-11T13:47:09;103629.95;;;-0.59;85.30
58967;BME280;44744;51.894;5.080;2024-01-11T13:52:10;103622.70;;;-0.58;85.25
58967;BME280;44744;51.894;5.080;2024-01-11T13:57:10;103617.56;;;-0.50;85.08
58967;BME280;44744;51.894;5.080;2024-01-11T14:02:11;103620.60;;;-0.38;85.38
58967;BME280;44744;51.894;5.080;2024-01-11T14:07:12;103616.22;;;-0.29;85.46
58967;BME280;44744;51.894;5.080;2024-01-11T14:12:13;103613.89;;;-0.26;85.40
58967;BME280;44744;51.894;5.080;2024-01-11T14:17:16;103609.61;;;-0.29;85.13
58967;BME280;44744;51.894;5.080;2024-01-11T14:22:17;103610.46;;;-0.34;84.96
58967;BME280;44744;51.894;5.080;2024-01-11T14:27:20;103599.46;;;-0.30;84.84
58967;BME280;44744;51.894;5.080;2024-01-11T14:32:21;103597.14;;;-0.27;85.02
58967;BME280;44744;51.894;5.080;2024-01-11T14:37:22;103593.44;;;-0.23;85.22
58967;BME280;44744;51.894;5.080;2024-01-11T14:42:22;103592.70;;;-0.25;85.33
58967;BME280;44744;51.894;5.080;2024-01-11T14:47:24;103588.98;;;-0.27;85.21
58967;BME280;44744;51.894;5.080;2024-01-11T14:52:25;103594.54;;;-0.31;84.89
58967;BME280;44744;51.894;5.080;2024-01-11T14:57:26;103590.32;;;-0.28;84.90
58967;BME280;44744;51.894;5.080;2024-01-11T15:02:26;103578.58;;;-0.20;85.17
58967;BME280;44744;51.894;5.080;2024-01-11T15:07:28;103572.86;;;-0.14;85.38
58967;BME280;44744;51.894;5.080;2024-01-11T15:12:28;103576.36;;;-0.14;85.30
58967;BME280;44744;51.894;5.080;2024-01-11T15:17:29;103576.42;;;-0.17;85.33
58967;BME280;44744;51.894;5.080;2024-01-11T15:22:30;103577.38;;;-0.20;85.07
58967;BME280;44744;51.894;5.080;2024-01-11T15:27:31;103582.95;;;-0.14;85.13
58967;BME280;44744;51.894;5.080;2024-01-11T15:32:32;103580.74;;;-0.08;85.30
58967;BME280;44744;51.894;5.080;2024-01-11T15:37:33;103575.80;;;-0.10;85.49
58967;BME280;44744;51.894;5.080;2024-01-11T15:42:35;103576.98;;;-0.11;85.56
58967;BME280;44744;51.894;5.080;2024-01-11T15:47:36;103573.98;;;-0.13;85.65
58967;BME280;44744;51.894;5.080;2024-01-11T15:52:37;103579.02;;;-0.17;85.42
58967;BME280;44744;51.894;5.080;2024-01-11T15:57:38;103578.84;;;-0.13;85.40
58967;BME280;44744;51.894;5.080;2024-01-11T16:02:42;103576.77;;;-0.07;85.62
58967;BME280;44744;51.894;5.080;2024-01-11T16:07:43;103578.27;;;-0.09;85.62
58967;BME280;44744;51.894;5.080;2024-01-11T16:12:43;103574.61;;;-0.19;85.76
58967;BME280;44744;51.894;5.080;2024-01-11T16:17:44;103575.90;;;-0.28;85.76
58967;BME280;44744;51.894;5.080;2024-01-11T16:22:47;103581.70;;;-0.31;85.80
58967;BME280;44744;51.894;5.080;2024-01-11T16:27:48;103581.23;;;-0.29;86.35
58967;BME280;44744;51.894;5.080;2024-01-11T16:32:50;103583.30;;;-0.24;86.68
58967;BME280;44744;51.894;5.080;2024-01-11T16:37:54;103575.23;;;-0.27;86.74
58967;BME280;44744;51.894;5.080;2024-01-11T16:43:07;103572.06;;;-0.28;86.90
58967;BME280;44744;51.894;5.080;2024-01-11T16:48:11;103564.74;;;-0.23;86.66
58967;BME280;44744;51.894;5.080;2024-01-11T16:53:17;103570.33;;;-0.17;87.02
58967;BME280;44744;51.894;5.080;2024-01-11T16:58:17;103576.28;;;-0.16;87.16
58967;BME280;44744;51.894;5.080;2024-01-11T17:03:18;103574.14;;;-0.18;87.16
58967;BME280;44744;51.894;5.080;2024-01-11T17:08:18;103578.52;;;-0.22;87.10
58967;BME280;44744;51.894;5.080;2024-01-11T17:13:19;103578.89;;;-0.17;87.15
58967;BME280;44744;51.894;5.080;2024-01-11T17:18:20;103573.95;;;-0.08;87.26
58967;BME280;44744;51.894;5.080;2024-01-11T17:23:20;103570.71;;;-0.06;87.60
58967;BME280;44744;51.894;5.080;2024-01-11T17:28:21;103569.23;;;-0.03;87.92
58967;BME280;44744;51.894;5.080;2024-01-11T17:33:21;103562.98;;;0.08;88.14
58967;BME280;44744;51.894;5.080;2024-01-11T17:38:22;103560.69;;;0.24;87.75
58967;BME280;44744;51.894;5.080;2024-01-11T17:43:22;103553.52;;;0.34;87.79
58967;BME280;44744;51.894;5.080;2024-01-11T17:48:23;103552.07;;;0.38;87.94
58967;BME280;44744;51.894;5.080;2024-01-11T17:53:24;103557.83;;;0.38;88.03
58967;BME280;44744;51.894;5.080;2024-01-11T17:58:24;103561.39;;;0.35;87.72
58967;BME280;44744;51.894;5.080;2024-01-11T18:03:24;103565.08;;;0.42;87.75
58967;BME280;44744;51.894;5.080;2024-01-11T18:08:25;103564.26;;;0.49;87.90
58967;BME280;44744;51.894;5.080;2024-01-11T18:13:28;103566.88;;;0.55;88.33
58967;BME280;44744;51.894;5.080;2024-01-11T18:18:28;103559.27;;;0.57;88.13
58967;BME280;44744;51.894;5.080;2024-01-11T18:23:30;103567.95;;;0.50;87.87
58967;BME280;44744;51.894;5.080;2024-01-11T18:28:30;103568.04;;;0.47;87.95
58967;BME280;44744;51.894;5.080;2024-01-11T18:36:48;103561.03;;;0.52;87.80
58967;BME280;44744;51.894;5.080;2024-01-11T18:41:48;103565.60;;;0.47;88.04
58967;BME280;44744;51.894;5.080;2024-01-11T18:46:51;103563.10;;;0.40;88.13
58967;BME280;44744;51.894;5.080;2024-01-11T18:51:52;103557.86;;;0.33;88.19
58967;BME280;44744;51.894;5.080;2024-01-11T18:56:53;103553.47;;;0.38;88.06
58967;BME280;44744;51.894;5.080;2024-01-11T19:01:53;103554.44;;;0.42;88.36
58967;BME280;44744;51.894;5.080;2024-01-11T19:06:54;103553.69;;;0.45;88.79
58967;BME280;44744;51.894;5.080;2024-01-11T19:11:55;103548.11;;;0.45;88.80
58967;BME280;44744;51.894;5.080;2024-01-11T19:16:58;103547.00;;;0.37;88.52
58967;BME280;44744;51.894;5.080;2024-01-11T19:21:59;103549.29;;;0.38;88.46
58967;BME280;44744;51.894;5.080;2024-01-11T19:27:03;103547.03;;;0.43;88.93
58967;BME280;44744;51.894;5.080;2024-01-11T19:32:03;103549.80;;;0.49;89.32
58967;BME280;44744;51.894;5.080;2024-01-11T19:37:04;103549.46;;;0.50;89.39
58967;BME280;44744;51.894;5.080;2024-01-11T19:42:05;103553.02;;;0.52;89.34
58967;BME280;44744;51.894;5.080;2024-01-11T19:47:06;103563.81;;;0.57;89.18
58967;BME280;44744;51.894;5.080;2024-01-11T19:52:07;103566.46;;;0.59;89.21
58967;BME280;44744;51.894;5.080;2024-01-11T19:57:07;103566.55;;;0.61;89.76
58967;BME280;44744;51.894;5.080;2024-01-11T20:02:07;103562.55;;;0.62;89.63
58967;BME280;44744;51.894;5.080;2024-01-11T20:07:10;103561.62;;;0.60;89.62
58967;BME280;44744;51.894;5.080;2024-01-11T20:12:11;103562.75;;;0.69;89.66
58967;BME280;44744;51.894;5.080;2024-01-11T20:17:11;103562.17;;;0.79;89.88
58967;BME280;44744;51.894;5.080;2024-01-11T20:22:12;103561.67;;;0.85;90.07
58967;BME280;44744;51.894;5.080;2024-01-11T20:27:12;103559.21;;;0.85;89.81
58967;BME280;44744;51.894;5.080;2024-01-11T20:32:13;103563.33;;;0.83;89.71
58967;BME280;44744;51.894;5.080;2024-01-11T20:37:13;103567.45;;;0.86;89.33
58967;BME280;44744;51.894;5.080;2024-01-11T20:42:14;103582.70;;;0.90;89.53
58967;BME280;44744;51.894;5.080;2024-01-11T20:47:15;103585.01;;;0.91;89.84
58967;BME280;44744;51.894;5.080;2024-01-11T20:52:17;103590.85;;;0.89;89.82
58967;BME280;44744;51.894;5.080;2024-01-11T20:57:18;103591.89;;;0.89;90.07
58967;BME280;44744;51.894;5.080;2024-01-11T21:02:20;103593.77;;;0.93;89.85
58967;BME280;44744;51.894;5.080;2024-01-11T21:07:21;103596.17;;;1.04;90.21
58967;BME280;44744;51.894;5.080;2024-01-11T21:12:21;103584.31;;;1.10;90.27
58967;BME280;44744;51.894;5.080;2024-01-11T21:17:22;103592.14;;;1.15;90.20
58967;BME280;44744;51.894;5.080;2024-01-11T21:22:22;103588.74;;;1.12;89.88
58967;BME280;44744;51.894;5.080;2024-01-11T21:27:23;103587.89;;;1.13;89.70
58967;BME280;44744;51.894;5.080;2024-01-11T21:32:23;103589.61;;;1.12;89.82
58967;BME280;44744;51.894;5.080;2024-01-11T21:37:24;103584.21;;;1.12;90.27
58967;BME280;44744;51.894;5.080;2024-01-11T21:42:25;103578.72;;;1.15;90.64
58967;BME280;44744;51.894;5.080;2024-01-11T21:47:26;103568.07;;;1.15;90.37
58967;BME280;44744;51.894;5.080;2024-01-11T21:52:27;103572.86;;;1.18;90.28
58967;BME280;44744;51.894;5.080;2024-01-11T21:57:27;103572.33;;;1.24;90.46
58967;BME280;44744;51.894;5.080;2024-01-11T22:02:28;103575.38;;;1.27;90.85
58967;BME280;44744;51.894;5.080;2024-01-11T22:07:29;103573.18;;;1.30;91.02
58967;BME280;44744;51.894;5.080;2024-01-11T22:12:30;103583.67;;;1.31;90.96
58967;BME280;44744;51.894;5.080;2024-01-11T22:17:31;103581.13;;;1.33;90.66
58967;BME280;44744;51.894;5.080;2024-01-11T22:22:33;103584.73;;;1.38;90.94
58967;BME280;44744;51.894;5.080;2024-01-11T22:27:33;103583.96;;;1.41;91.06
58967;BME280;44744;51.894;5.080;2024-01-11T22:32:36;103590.30;;;1.38;90.86
58967;BME280;44744;51.894;5.080;2024-01-11T22:37:38;103584.06;;;1.31;90.65
58967;BME280;44744;51.894;5.080;2024-01-11T22:42:38;103593.02;;;1.34;90.71
58967;BME280;44744;51.894;5.080;2024-01-11T22:47:42;103590.69;;;1.39;90.57
58967;BME280;44744;51.894;5.080;2024-01-11T22:52:46;103587.10;;;1.41;91.08
58967;BME280;44744;51.894;5.080;2024-01-11T22:57:46;103577.31;;;1.47;91.33
58967;BME280;44744;51.894;5.080;2024-01-11T23:02:50;103579.14;;;1.50;91.24
58967;BME280;44744;51.894;5.080;2024-01-11T23:07:50;103584.11;;;1.54;91.03
58967;BME280;44744;51.894;5.080;2024-01-11T23:12:51;103579.52;;;1.58;91.05
58967;BME280;44744;51.894;5.080;2024-01-11T23:17:51;103587.57;;;1.59;90.98
58967;BME280;44744;51.894;5.080;2024-01-11T23:22:51;103579.13;;;1.56;91.04
58967;BME280;44744;51.894;5.080;2024-01-11T23:27:52;103577.14;;;1.54;90.79
58967;BME280;44744;51.894;5.080;2024-01-11T23:32:52;103579.31;;;1.50;90.60
58967;BME280;44744;51.894;5.080;2024-01-11T23:37:53;103569.67;;;1.55;91.09
58967;BME280;44744;51.894;5.080;2024-01-11T23:42:54;103566.55;;;1.56;91.27
58967;BME280;44744;51.894;5.080;2024-01-11T23:47:54;103569.52;;;1.56;91.28
58967;BME280;44744;51.894;5.080;2024-01-11T23:52:54;103571.64;;;1.57;91.27
58967;BME280;44744;51.894;5.080;2024-01-11T23:57:55;103577.67;;;1.61;91.13
